Time;durP1;ratioP1;P1;durP2;ratioP2;P2;SDS_P1;SDS_P2;PMS_P1;PMS_P2;Temp;Humidity;BMP_temperature;BMP_pressure;BME280_temperature;BME280_humidity;BME280_pressure;Samples;Min_cycle;Max_cycle;Signal;HPM_P1;HPM_P2
2022/03/11 00:01:16;;;;;;;11.27;7.20;;;7.10;99.90;;;;;;4962568;28;39583;-76
2022/03/11 00:03:42;;;;;;;11.40;7.33;;;7.00;99.90;;;;;;4957882;28;39302;-76
2022/03/11 00:06:08;;;;;;;9.93;6.70;;;6.90;99.90;;;;;;4962546;28;38764;-77
2022/03/11 00:08:34;;;;;;;13.53;7.17;;;6.90;99.90;;;;;;4965100;28;36045;-76
2022/03/11 00:11:00;;;;;;;9.83;6.73;;;6.90;99.90;;;;;;4964421;28;39712;-76
2022/03/11 00:13:26;;;;;;;10.27;6.87;;;6.90;99.90;;;;;;4963154;28;38913;-76
2022/03/11 00:15:52;;;;;;;14.20;7.27;;;6.80;99.90;;;;;;4939396;28;37683;-76
2022/03/11 00:18:19;;;;;;;10.33;7.40;;;6.70;99.90;;;;;;4964223;28;37832;-76
2022/03/11 00:20:45;;;;;;;13.60;7.63;;;6.60;99.90;;;;;;4963754;28;38715;-76
2022/03/11 00:23:11;;;;;;;10.20;7.23;;;6.60;99.90;;;;;;4949415;28;38044;-76
2022/03/11 00:25:37;;;;;;;11.93;7.23;;;6.60;99.90;;;;;;4961127;28;37508;-76
2022/03/11 00:28:03;;;;;;;11.93;7.63;;;6.60;99.90;;;;;;4962471;28;38517;-76
2022/03/11 00:30:30;;;;;;;12.67;7.50;;;6.60;99.90;;;;;;4955372;28;38213;-76
2022/03/11 00:32:56;;;;;;;11.60;7.90;;;6.60;99.90;;;;;;4941346;28;38659;-76
2022/03/11 00:35:23;;;;;;;14.47;7.40;;;6.60;99.90;;;;;;4953838;28;37947;-76
2022/03/11 00:37:49;;;;;;;14.17;7.53;;;6.60;99.90;;;;;;4942437;28;39538;-76
2022/03/11 00:40:15;;;;;;;17.13;9.13;;;6.50;99.90;;;;;;4961816;28;38504;-77
2022/03/11 00:42:41;;;;;;;12.00;8.30;;;6.50;99.90;;;;;;4961827;28;38700;-76
2022/03/11 00:45:08;;;;;;;13.40;8.03;;;6.50;99.90;;;;;;4961322;28;37696;-76
2022/03/11 00:47:35;;;;;;;12.73;8.43;;;6.40;99.90;;;;;;4951101;28;38232;-76
2022/03/11 00:50:01;;;;;;;13.27;8.43;;;6.30;99.90;;;;;;4958421;28;38738;-76
2022/03/11 00:52:27;;;;;;;14.33;8.93;;;6.20;99.90;;;;;;4968046;28;48484;-76
2022/03/11 00:54:53;;;;;;;14.37;8.53;;;6.20;99.90;;;;;;4972830;28;36907;-75
2022/03/11 00:57:20;;;;;;;13.30;8.97;;;6.20;99.90;;;;;;4973147;28;37190;-76
2022/03/11 00:59:46;;;;;;;13.47;8.10;;;6.30;99.90;;;;;;4963610;28;39338;-76
2022/03/11 01:02:12;;;;;;;15.27;9.00;;;6.30;99.90;;;;;;4981990;28;36796;-76
2022/03/11 01:04:39;;;;;;;14.67;8.60;;;6.30;99.90;;;;;;4976015;28;40277;-76
2022/03/11 01:07:05;;;;;;;15.30;8.47;;;6.20;99.90;;;;;;4978631;28;38330;-76
2022/03/11 01:09:31;;;;;;;13.53;8.50;;;6.10;99.90;;;;;;4982673;28;38393;-76
2022/03/11 01:11:57;;;;;;;15.30;8.80;;;6.20;99.90;;;;;;4977753;28;37044;-76
2022/03/11 01:14:23;;;;;;;15.90;9.07;;;6.10;99.90;;;;;;4980885;28;38287;-77
2022/03/11 01:16:49;;;;;;;17.00;9.10;;;6.00;99.90;;;;;;4976114;28;37150;-76
2022/03/11 01:19:15;;;;;;;11.80;8.43;;;6.00;99.90;;;;;;4963183;28;40233;-75
2022/03/11 01:21:41;;;;;;;14.67;9.40;;;6.10;99.90;;;;;;4965553;28;39027;-76
2022/03/11 01:24:07;;;;;;;12.77;8.63;;;6.10;99.90;;;;;;4982888;28;38357;-76
2022/03/11 01:26:34;;;;;;;13.67;8.57;;;6.00;99.90;;;;;;4979114;28;37953;-76
2022/03/11 01:29:00;;;;;;;13.80;9.03;;;6.00;99.90;;;;;;4963469;28;39719;-76
2022/03/11 01:31:26;;;;;;;16.13;9.53;;;5.90;99.90;;;;;;4975266;28;37889;-76
2022/03/11 01:33:52;;;;;;;13.73;9.10;;;5.90;99.90;;;;;;4971609;28;38668;-75
2022/03/11 01:36:18;;;;;;;13.93;9.03;;;6.00;99.90;;;;;;4968559;28;36123;-76
2022/03/11 01:38:44;;;;;;;12.83;8.90;;;6.00;99.90;;;;;;4956650;28;37779;-76
2022/03/11 01:41:10;;;;;;;12.90;8.27;;;5.90;99.90;;;;;;4974360;28;37236;-76
2022/03/11 01:43:54;;;;;;;13.33;8.57;;;6.00;99.90;;;;;;4976808;28;37595;-75
2022/03/11 01:46:21;;;;;;;16.30;9.03;;;6.00;99.90;;;;;;4979164;28;36980;-76
2022/03/11 01:48:47;;;;;;;13.23;8.80;;;6.00;99.90;;;;;;4977980;28;38527;-75
2022/03/11 01:51:13;;;;;;;16.30;9.33;;;6.00;99.90;;;;;;4972459;28;38069;-76
2022/03/11 01:53:40;;;;;;;15.63;9.03;;;6.00;99.90;;;;;;4968942;28;36423;-76
2022/03/11 01:56:06;;;;;;;14.13;8.77;;;6.00;99.90;;;;;;4954489;28;35960;-75
2022/03/11 01:58:33;;;;;;;14.57;8.97;;;6.00;99.90;;;;;;4950764;28;39816;-76
2022/03/11 02:00:59;;;;;;;13.20;8.73;;;5.90;99.90;;;;;;4957794;28;40901;-76
2022/03/11 02:03:25;;;;;;;15.20;8.20;;;5.90;99.90;;;;;;4959150;28;37926;-76
2022/03/11 02:05:52;;;;;;;16.00;9.17;;;6.00;99.90;;;;;;4974091;28;37791;-76
2022/03/11 02:08:19;;;;;;;16.73;9.50;;;6.00;99.90;;;;;;4960163;28;38967;-75
2022/03/11 02:10:45;;;;;;;15.60;9.20;;;6.00;99.90;;;;;;4963621;28;39143;-76
2022/03/11 02:13:11;;;;;;;17.23;9.27;;;5.90;99.90;;;;;;4978848;28;38310;-76
2022/03/11 02:15:37;;;;;;;15.07;9.10;;;5.90;99.90;;;;;;4966604;28;36878;-75
2022/03/11 02:18:03;;;;;;;14.30;8.27;;;5.90;99.90;;;;;;4967590;28;39352;-76
2022/03/11 02:20:30;;;;;;;14.60;9.07;;;5.90;99.90;;;;;;4965955;28;38190;-76
2022/03/11 02:22:58;;;;;;;16.43;9.13;;;6.00;99.90;;;;;;4968705;28;38212;-76
2022/03/11 02:25:24;;;;;;;15.50;9.07;;;6.00;99.90;;;;;;4963050;28;37019;-76
2022/03/11 02:27:50;;;;;;;12.50;8.73;;;5.90;99.90;;;;;;4963573;28;38793;-76
2022/03/11 02:30:19;;;;;;;14.67;8.43;;;5.90;99.90;;;;;;4963247;28;38635;-75
2022/03/11 02:32:47;;;;;;;18.03;8.40;;;5.70;99.90;;;;;;4958445;28;37859;-76
2022/03/11 02:35:14;;;;;;;14.30;9.37;;;5.80;99.90;;;;;;4977683;28;38023;-76
2022/03/11 02:37:40;;;;;;;15.47;9.27;;;5.90;99.90;;;;;;4981072;28;39762;-76
2022/03/11 02:40:07;;;;;;;16.50;8.80;;;5.80;99.90;;;;;;4978725;28;39710;-76
2022/03/11 02:42:33;;;;;;;14.93;8.43;;;5.70;99.90;;;;;;4962273;28;36924;-76
2022/03/11 02:45:04;;;;;;;12.03;8.70;;;5.60;99.90;;;;;;4981347;28;38159;-75
2022/03/11 02:47:30;;;;;;;12.23;8.40;;;5.70;99.90;;;;;;4981217;28;46767;-76
2022/03/11 02:49:56;;;;;;;15.23;8.57;;;5.80;99.90;;;;;;4980869;28;38569;-76
2022/03/11 02:52:23;;;;;;;14.83;8.20;;;5.80;99.90;;;;;;4964330;28;38822;-76
2022/03/11 02:54:49;;;;;;;16.50;8.33;;;5.70;99.90;;;;;;4978874;28;38150;-75
2022/03/11 02:57:16;;;;;;;11.87;8.37;;;5.70;99.90;;;;;;4965524;28;38840;-76
2022/03/11 02:59:46;;;;;;;13.63;8.87;;;5.60;99.90;;;;;;4974117;28;39086;-76
2022/03/11 03:02:12;;;;;;;11.70;8.33;;;5.60;99.90;;;;;;4963756;28;39036;-75
2022/03/11 03:04:39;;;;;;;18.13;8.83;;;5.60;99.90;;;;;;4967047;28;37353;-76
2022/03/11 03:07:07;;;;;;;16.37;9.20;;;5.40;99.90;;;;;;4963923;28;39016;-75
2022/03/11 03:09:36;;;;;;;15.40;9.03;;;5.40;99.90;;;;;;4958413;28;36804;-76
2022/03/11 03:12:02;;;;;;;18.10;9.03;;;5.40;99.90;;;;;;4978455;28;39306;-76
2022/03/11 03:14:28;;;;;;;15.40;8.50;;;5.30;99.90;;;;;;4958278;28;37675;-76
2022/03/11 03:16:54;;;;;;;12.10;8.40;;;5.30;99.90;;;;;;4974638;28;38954;-76
2022/03/11 03:19:20;;;;;;;14.20;9.37;;;5.20;99.90;;;;;;4957423;28;38730;-76
2022/03/11 03:21:46;;;;;;;11.90;8.07;;;5.10;99.90;;;;;;4960126;28;38820;-76
2022/03/11 03:24:12;;;;;;;13.40;8.47;;;5.20;99.90;;;;;;4958107;28;37408;-75
2022/03/11 03:26:38;;;;;;;16.70;9.77;;;5.10;99.90;;;;;;4957170;28;39307;-77
2022/03/11 03:29:04;;;;;;;16.87;9.10;;;5.10;99.90;;;;;;4959377;28;38622;-75
2022/03/11 03:31:30;;;;;;;14.40;9.43;;;5.10;99.90;;;;;;4961078;28;37705;-75
2022/03/11 03:33:57;;;;;;;15.73;9.33;;;5.00;99.90;;;;;;4958823;28;37114;-76
2022/03/11 03:36:23;;;;;;;17.07;9.33;;;4.90;99.90;;;;;;4961337;28;38984;-76
2022/03/11 03:38:49;;;;;;;13.60;8.90;;;5.00;99.90;;;;;;4962756;28;39206;-76
2022/03/11 03:41:15;;;;;;;15.40;9.50;;;5.10;99.90;;;;;;4966315;28;37972;-76
2022/03/11 03:43:41;;;;;;;15.80;10.13;;;5.00;99.90;;;;;;4963750;28;37263;-76
2022/03/11 03:46:07;;;;;;;16.10;9.23;;;5.10;99.90;;;;;;4979674;28;39245;-76
2022/03/11 03:48:34;;;;;;;20.90;9.87;;;5.20;99.90;;;;;;4960089;28;38708;-76
2022/03/11 03:51:01;;;;;;;19.87;10.30;;;5.10;99.90;;;;;;4958873;28;38463;-76
2022/03/11 03:53:27;;;;;;;18.93;11.03;;;4.90;99.90;;;;;;4968478;28;47351;-76
2022/03/11 03:55:53;;;;;;;17.70;9.93;;;4.90;99.90;;;;;;4970262;28;40382;-76
2022/03/11 03:58:19;;;;;;;15.67;9.70;;;5.00;99.90;;;;;;4976438;28;37295;-75
2022/03/11 04:00:45;;;;;;;18.30;9.40;;;5.00;99.90;;;;;;4970485;28;36743;-76
2022/03/11 04:03:11;;;;;;;16.03;9.93;;;4.90;99.90;;;;;;4959760;28;35813;-76
2022/03/11 04:05:37;;;;;;;15.37;9.43;;;5.00;99.90;;;;;;4977293;28;38877;-76
2022/03/11 04:08:04;;;;;;;16.77;10.27;;;4.90;99.90;;;;;;4957691;28;39024;-75
2022/03/11 04:10:30;;;;;;;15.30;9.83;;;4.90;99.90;;;;;;4973778;28;39700;-76
2022/03/11 04:12:57;;;;;;;20.40;10.93;;;4.80;99.90;;;;;;4967682;28;37361;-76
2022/03/11 04:15:26;;;;;;;13.07;9.47;;;4.80;99.90;;;;;;4963820;28;40035;-76
2022/03/11 04:17:52;;;;;;;14.33;9.63;;;4.90;99.90;;;;;;4962357;28;36430;-75
2022/03/11 04:20:18;;;;;;;17.33;9.90;;;4.90;99.90;;;;;;4969611;28;36959;-75
2022/03/11 04:22:45;;;;;;;18.47;11.37;;;4.90;99.90;;;;;;4956704;28;36829;-76
2022/03/11 04:25:13;;;;;;;19.87;10.50;;;4.90;99.90;;;;;;4964412;28;38692;-76
2022/03/11 04:27:40;;;;;;;17.03;9.70;;;4.90;99.90;;;;;;4965365;28;36908;-76
2022/03/11 04:30:10;;;;;;;15.63;9.67;;;4.80;99.90;;;;;;4963069;28;37729;-76
2022/03/11 04:32:36;;;;;;;14.50;10.53;;;4.80;99.90;;;;;;4959424;28;36993;-75
2022/03/11 04:35:03;;;;;;;13.23;9.70;;;4.80;99.90;;;;;;4976579;28;38600;-75
2022/03/11 04:37:29;;;;;;;15.43;10.43;;;4.80;99.90;;;;;;4957881;28;48812;-75
2022/03/11 04:39:57;;;;;;;16.63;10.90;;;4.80;99.90;;;;;;4968866;28;39811;-75
2022/03/11 04:42:23;;;;;;;15.97;10.40;;;4.80;99.90;;;;;;4958014;28;37347;-75
2022/03/11 04:44:49;;;;;;;17.60;9.87;;;4.90;99.90;;;;;;4963258;28;39330;-75
2022/03/11 04:47:15;;;;;;;15.73;9.77;;;4.80;99.90;;;;;;4963179;28;38877;-75
2022/03/11 04:49:41;;;;;;;13.57;9.40;;;4.80;99.90;;;;;;4959950;28;37032;-75
2022/03/11 04:52:07;;;;;;;15.80;10.50;;;4.80;99.90;;;;;;4968785;28;35953;-75
2022/03/11 04:54:34;;;;;;;19.77;11.13;;;4.70;99.90;;;;;;4977486;28;37163;-75
2022/03/11 04:57:00;;;;;;;20.77;10.27;;;4.70;99.90;;;;;;4958909;28;37243;-75
2022/03/11 04:59:26;;;;;;;15.77;10.40;;;4.70;99.90;;;;;;4955680;28;39894;-75
2022/03/11 05:01:52;;;;;;;17.87;9.50;;;4.60;99.90;;;;;;4961009;28;38110;-75
2022/03/11 05:04:18;;;;;;;17.77;11.03;;;4.50;99.90;;;;;;4962846;28;38415;-75
2022/03/11 05:06:44;;;;;;;16.27;10.70;;;4.60;99.90;;;;;;4978190;28;38137;-75
2022/03/11 05:09:10;;;;;;;17.17;9.43;;;4.60;99.90;;;;;;4976170;28;37662;-76
2022/03/11 05:11:37;;;;;;;18.03;10.30;;;4.70;99.90;;;;;;4977023;28;36127;-75
2022/03/11 05:14:04;;;;;;;16.10;10.30;;;4.70;99.90;;;;;;4975640;28;40347;-75
2022/03/11 05:16:30;;;;;;;17.10;11.10;;;4.80;99.90;;;;;;4978226;28;38769;-75
2022/03/11 05:18:56;;;;;;;19.37;10.03;;;4.70;99.90;;;;;;4975240;28;38176;-75
2022/03/11 05:21:23;;;;;;;22.63;11.23;;;4.80;99.90;;;;;;4957659;28;37210;-75
2022/03/11 05:23:49;;;;;;;16.73;10.00;;;4.70;99.90;;;;;;4960941;28;39866;-75
2022/03/11 05:26:28;;;;;;;17.03;9.60;;;4.80;99.90;;;;;;4962120;28;39510;-75
2022/03/11 05:28:59;;;;;;;17.33;9.83;;;4.80;99.90;;;;;;4975493;28;38485;-75
2022/03/11 05:31:26;;;;;;;18.10;10.57;;;4.80;99.90;;;;;;4962061;28;36929;-75
2022/03/11 05:33:54;;;;;;;17.50;9.60;;;4.90;99.90;;;;;;4974716;28;40710;-75
2022/03/11 05:36:21;;;;;;;17.20;10.73;;;4.90;99.90;;;;;;4960917;28;38785;-75
2022/03/11 05:38:47;;;;;;;18.07;11.13;;;5.00;99.90;;;;;;4975993;28;38674;-75
2022/03/11 05:41:13;;;;;;;16.90;10.67;;;4.90;99.90;;;;;;4950190;28;38070;-75
2022/03/11 05:43:40;;;;;;;16.93;10.13;;;4.90;99.90;;;;;;4966275;28;38793;-75
2022/03/11 05:46:06;;;;;;;18.73;11.37;;;4.90;99.90;;;;;;4949900;28;38092;-75
2022/03/11 05:48:32;;;;;;;15.60;9.53;;;4.90;99.90;;;;;;4946843;28;38149;-75
2022/03/11 05:50:59;;;;;;;14.20;8.57;;;4.80;99.90;;;;;;4969542;28;38623;-76
2022/03/11 05:53:25;;;;;;;18.27;9.90;;;4.90;99.90;;;;;;4967455;28;38935;-75
2022/03/11 05:55:51;;;;;;;17.87;10.37;;;4.90;99.90;;;;;;4977741;28;39374;-75
2022/03/11 05:58:17;;;;;;;17.43;10.03;;;4.90;99.90;;;;;;4976539;28;38034;-75
2022/03/11 06:00:43;;;;;;;15.87;10.17;;;4.80;99.90;;;;;;4980219;28;38294;-77
2022/03/11 06:03:10;;;;;;;15.23;10.33;;;4.80;99.90;;;;;;4978572;28;39949;-75
2022/03/11 06:05:36;;;;;;;18.47;10.43;;;4.70;99.90;;;;;;4979736;28;37888;-75
2022/03/11 06:08:02;;;;;;;16.10;9.77;;;4.60;99.90;;;;;;4974320;28;39454;-75
2022/03/11 06:10:29;;;;;;;20.83;10.33;;;4.50;99.90;;;;;;4968951;28;38865;-75
2022/03/11 06:12:55;;;;;;;16.57;9.83;;;4.60;99.90;;;;;;4976809;28;40430;-76
2022/03/11 06:15:21;;;;;;;18.97;9.50;;;4.60;99.90;;;;;;4978822;28;39688;-75
2022/03/11 06:17:47;;;;;;;17.77;10.33;;;4.60;99.90;;;;;;4980937;28;40885;-75
2022/03/11 06:20:13;;;;;;;16.40;10.20;;;4.50;99.90;;;;;;4968571;28;39139;-75
2022/03/11 06:22:49;;;;;;;14.50;9.57;;;4.50;99.90;;;;;;4984423;28;38838;-75
2022/03/11 06:25:19;;;;;;;17.00;9.47;;;4.50;99.90;;;;;;4978487;28;39830;-75
2022/03/11 06:27:46;;;;;;;16.73;9.13;;;4.70;99.90;;;;;;4982855;28;39633;-74
2022/03/11 06:30:12;;;;;;;19.70;9.67;;;4.60;99.90;;;;;;4975777;28;37097;-75
2022/03/11 06:32:46;;;;;;;15.77;9.53;;;4.60;99.90;;;;;;4956183;28;40363;-75
2022/03/11 06:35:13;;;;;;;15.80;9.60;;;4.60;99.90;;;;;;4964796;28;36828;-75
2022/03/11 06:37:40;;;;;;;13.93;8.90;;;4.70;99.90;;;;;;4975733;28;38557;-75
2022/03/11 06:40:08;;;;;;;15.00;9.27;;;4.70;99.90;;;;;;4975557;28;36971;-75
2022/03/11 06:42:43;;;;;;;15.93;10.17;;;4.80;99.90;;;;;;4966664;28;38813;-75
2022/03/11 06:45:11;;;;;;;15.13;8.63;;;4.80;99.90;;;;;;4979121;28;40545;-75
2022/03/11 06:47:38;;;;;;;16.53;9.17;;;4.80;99.90;;;;;;4980121;28;38089;-77
2022/03/11 06:50:05;;;;;;;13.57;8.70;;;4.90;99.90;;;;;;4971014;28;39245;-77
2022/03/11 06:52:32;;;;;;;19.33;9.50;;;4.90;99.90;;;;;;4975727;28;38484;-77
2022/03/11 06:54:58;;;;;;;15.13;9.80;;;5.00;99.90;;;;;;4954204;28;39632;-77
2022/03/11 06:57:24;;;;;;;13.77;8.87;;;5.00;99.90;;;;;;4971008;28;39323;-77
2022/03/11 06:59:50;;;;;;;16.57;8.20;;;5.10;99.90;;;;;;4956052;28;38256;-77
2022/03/11 07:02:16;;;;;;;14.67;8.10;;;5.20;99.90;;;;;;4977294;28;37850;-77
2022/03/11 07:04:43;;;;;;;12.73;8.10;;;5.30;99.90;;;;;;4957003;28;37738;-77
2022/03/11 07:07:09;;;;;;;12.90;8.37;;;5.40;99.90;;;;;;4957465;28;38201;-78
2022/03/11 07:09:35;;;;;;;17.07;8.77;;;5.50;99.90;;;;;;4957620;28;38154;-77
2022/03/11 07:12:03;;;;;;;14.80;9.07;;;5.60;99.90;;;;;;4951793;28;39838;-76
2022/03/11 07:14:33;;;;;;;12.13;8.67;;;5.60;99.90;;;;;;4959557;28;39013;-78
2022/03/11 07:16:59;;;;;;;17.40;9.77;;;5.60;99.90;;;;;;4973261;28;38878;-77
2022/03/11 07:19:29;;;;;;;12.60;8.47;;;5.70;99.90;;;;;;4959387;28;37294;-77
2022/03/11 07:21:56;;;;;;;14.47;8.43;;;5.90;99.90;;;;;;4961374;28;39492;-77
2022/03/11 07:24:22;;;;;;;13.63;8.57;;;6.00;99.90;;;;;;4972566;28;39128;-78
2022/03/11 07:26:48;;;;;;;14.43;9.00;;;6.10;99.90;;;;;;4975437;28;37968;-77
2022/03/11 07:29:14;;;;;;;15.90;7.97;;;6.20;99.90;;;;;;4956950;28;37169;-79
2022/03/11 07:31:41;;;;;;;16.40;9.13;;;6.30;99.90;;;;;;4958160;28;40381;-79
2022/03/11 07:34:07;;;;;;;13.23;8.33;;;6.30;99.90;;;;;;4955848;28;39855;-77
2022/03/11 07:36:34;;;;;;;16.33;8.47;;;6.30;99.90;;;;;;4975200;28;38840;-77
2022/03/11 07:39:01;;;;;;;14.87;8.07;;;6.40;99.90;;;;;;4975527;28;38163;-77
2022/03/11 07:41:28;;;;;;;12.77;8.13;;;6.50;99.90;;;;;;4968559;28;46881;-77
2022/03/11 07:43:55;;;;;;;16.73;9.03;;;6.60;99.90;;;;;;4954646;28;37169;-75
2022/03/11 07:46:23;;;;;;;13.13;8.40;;;6.70;99.90;;;;;;4968988;28;39087;-76
2022/03/11 07:48:52;;;;;;;12.10;8.20;;;6.70;99.90;;;;;;4960276;28;37268;-76
2022/03/11 07:51:18;;;;;;;13.73;8.30;;;6.80;99.90;;;;;;4958196;28;38834;-77
2022/03/11 07:53:44;;;;;;;14.43;8.87;;;6.90;99.90;;;;;;4962078;28;38260;-75
2022/03/11 07:56:12;;;;;;;14.63;8.50;;;6.90;99.90;;;;;;4983160;28;40183;-76
2022/03/11 07:58:39;;;;;;;11.93;8.73;;;7.00;99.90;;;;;;4976745;28;37896;-78
2022/03/11 08:01:09;;;;;;;13.20;8.10;;;7.10;99.90;;;;;;4983353;28;38663;-75
2022/03/11 08:03:39;;;;;;;14.67;8.10;;;7.10;99.90;;;;;;4973538;28;38698;-78
2022/03/11 08:06:08;;;;;;;14.87;9.33;;;7.20;99.90;;;;;;4990552;28;37826;-77
2022/03/11 08:08:38;;;;;;;13.53;7.50;;;7.30;99.90;;;;;;4987731;28;37873;-78
2022/03/11 08:11:05;;;;;;;13.80;8.03;;;7.30;99.90;;;;;;4966098;28;40415;-79
2022/03/11 08:13:33;;;;;;;18.13;8.83;;;7.40;99.90;;;;;;4980094;28;40242;-78
2022/03/11 08:16:00;;;;;;;11.60;7.60;;;7.40;99.90;;;;;;4976617;28;39554;-79
2022/03/11 08:18:27;;;;;;;13.87;8.77;;;7.50;99.90;;;;;;4983443;28;47955;-79
2022/03/11 08:20:53;;;;;;;12.83;8.70;;;7.60;99.90;;;;;;4978793;28;37334;-78
2022/03/11 08:23:19;;;;;;;14.33;8.23;;;7.70;99.90;;;;;;4975476;28;38217;-79
2022/03/11 08:25:46;;;;;;;12.00;7.80;;;7.70;99.90;;;;;;4974899;28;38748;-81
2022/03/11 08:28:13;;;;;;;13.27;8.43;;;7.90;99.90;;;;;;4964614;28;38861;-79
2022/03/11 08:30:41;;;;;;;14.17;8.20;;;8.00;99.90;;;;;;4952362;28;39150;-77
2022/03/11 08:33:08;;;;;;;14.10;9.07;;;8.10;99.90;;;;;;4989218;28;38280;-79
2022/03/11 08:35:34;;;;;;;17.73;9.07;;;8.20;99.90;;;;;;4981755;28;39253;-77
2022/03/11 08:38:06;;;;;;;12.93;8.67;;;8.30;99.90;;;;;;4981195;28;37194;-80
2022/03/11 08:40:35;;;;;;;14.50;8.38;;;8.40;99.90;;;;;;4981847;28;48689;-79
2022/03/11 08:43:02;;;;;;;15.17;9.13;;;8.40;99.90;;;;;;4968299;28;39764;-79
2022/03/11 08:45:28;;;;;;;13.37;8.57;;;8.50;99.90;;;;;;4976564;28;48665;-79
2022/03/11 08:47:55;;;;;;;15.30;8.53;;;8.60;99.90;;;;;;4966209;28;38014;-80
2022/03/11 08:50:21;;;;;;;12.73;8.00;;;8.70;99.90;;;;;;4984504;28;39999;-79
2022/03/11 08:52:54;;;;;;;15.33;8.77;;;8.80;99.90;;;;;;4985191;28;37763;-79
2022/03/11 08:55:20;;;;;;;11.95;8.45;;;8.90;99.90;;;;;;4963335;28;38469;-78
2022/03/11 08:57:50;;;;;;;14.73;8.57;;;9.00;99.90;;;;;;4977536;28;36367;-78
2022/03/11 09:00:21;;;;;;;13.00;8.63;;;9.00;99.90;;;;;;4966223;28;38972;-79
2022/03/11 09:02:50;;;;;;;14.50;9.57;;;9.20;99.90;;;;;;4963802;28;37966;-79
2022/03/11 09:05:18;;;;;;;15.17;8.70;;;9.30;99.90;;;;;;4983762;28;37724;-79
2022/03/11 09:07:45;;;;;;;12.60;8.17;;;9.30;99.90;;;;;;4986512;28;37361;-78
2022/03/11 09:10:12;;;;;;;14.27;7.97;;;9.40;99.90;;;;;;4957789;28;39769;-79
2022/03/11 09:12:40;;;;;;;13.23;8.47;;;9.50;99.90;;;;;;4968148;28;38186;-79
2022/03/11 09:15:08;;;;;;;16.10;8.90;;;9.60;99.90;;;;;;4978601;28;38008;-78
2022/03/11 09:17:37;;;;;;;14.20;8.10;;;9.70;99.90;;;;;;4987465;28;36111;-81
2022/03/11 09:20:06;;;;;;;17.73;8.60;;;9.90;99.90;;;;;;4982409;28;38842;-78
2022/03/11 09:22:33;;;;;;;13.17;8.63;;;9.90;99.90;;;;;;4988581;28;39490;-77
2022/03/11 09:25:04;;;;;;;14.60;8.47;;;10.00;99.90;;;;;;4968868;28;36879;-77
2022/03/11 09:27:33;;;;;;;14.47;8.37;;;10.00;99.90;;;;;;4986075;28;47608;-79
2022/03/11 09:29:59;;;;;;;18.90;8.87;;;10.20;99.90;;;;;;4984159;28;38921;-79
2022/03/11 09:32:26;;;;;;;15.37;8.20;;;10.30;99.90;;;;;;4985227;28;39222;-77
2022/03/11 09:34:53;;;;;;;16.87;8.63;;;10.30;99.90;;;;;;4980782;28;39049;-77
2022/03/11 09:37:19;;;;;;;16.75;8.38;;;10.50;99.90;;;;;;4977845;28;37162;-77
2022/03/11 09:39:46;;;;;;;12.13;8.27;;;10.60;99.90;;;;;;4985357;28;39835;-77
2022/03/11 09:42:12;;;;;;;16.60;8.27;;;10.80;99.90;;;;;;4966221;28;38899;-78
2022/03/11 09:44:40;;;;;;;21.15;7.82;;;10.90;99.90;;;;;;4988687;28;20078;-77
2022/03/11 09:47:07;;;;;;;14.38;8.98;;;11.00;99.90;;;;;;4984471;28;37406;-77
2022/03/11 09:49:35;;;;;;;15.98;8.27;;;11.00;99.90;;;;;;4986602;28;39110;-78
2022/03/11 09:52:05;;;;;;;12.10;8.30;;;11.10;99.90;;;;;;4981379;28;37807;-77
2022/03/11 09:54:32;;;;;;;12.70;8.63;;;11.20;99.90;;;;;;4986144;28;48631;-76
2022/03/11 09:56:58;;;;;;;12.70;8.40;;;11.30;99.90;;;;;;4983942;28;37227;-78
2022/03/11 09:59:24;;;;;;;18.33;8.88;;;11.40;99.90;;;;;;4983230;28;37943;-77
2022/03/11 10:01:51;;;;;;;15.32;8.15;;;11.40;99.90;;;;;;4979157;28;38586;-77
2022/03/11 10:04:17;;;;;;;14.50;8.60;;;11.60;99.90;;;;;;4965079;28;37956;-76
2022/03/11 10:06:45;;;;;;;14.80;8.55;;;11.70;99.90;;;;;;4984426;28;35623;-77
2022/03/11 10:09:20;;;;;;;17.02;9.05;;;11.80;99.90;;;;;;4980420;28;38831;-77
2022/03/11 10:11:52;;;;;;;15.05;8.43;;;11.80;99.90;;;;;;4986243;28;38848;-77
2022/03/11 10:14:27;;;;;;;13.15;9.02;;;11.90;99.90;;;;;;4980218;28;38221;-77
2022/03/11 10:16:53;;;;;;;13.35;8.43;;;12.00;99.90;;;;;;4983706;28;37330;-77
2022/03/11 10:19:21;;;;;;;15.52;8.68;;;12.00;99.90;;;;;;4968660;28;37891;-77
2022/03/11 10:21:48;;;;;;;20.25;8.65;;;12.10;99.90;;;;;;4970417;28;38840;-74
2022/03/11 10:24:16;;;;;;;14.43;9.43;;;12.20;99.90;;;;;;4987599;28;37919;-75
2022/03/11 10:26:47;;;;;;;13.88;9.05;;;12.30;99.90;;;;;;4983473;28;37080;-75
2022/03/11 10:29:22;;;;;;;13.77;9.10;;;12.30;99.90;;;;;;4981150;28;38877;-74
2022/03/11 10:31:54;;;;;;;13.15;8.57;;;12.50;99.90;;;;;;4983371;28;38695;-78
2022/03/11 10:34:24;;;;;;;15.90;8.98;;;12.70;99.90;;;;;;4963150;28;37874;-77
2022/03/11 10:37:01;;;;;;;18.02;9.10;;;12.70;99.90;;;;;;4982824;28;36119;-77
2022/03/11 10:39:30;;;;;;;24.23;9.45;;;12.70;99.90;;;;;;4969054;28;47484;-75
2022/03/11 10:42:13;;;;;;;13.57;9.20;;;12.70;99.90;;;;;;4982981;28;37591;-75
2022/03/11 10:44:56;;;;;;;17.30;9.25;;;12.90;99.90;;;;;;4984057;28;49354;-75
2022/03/11 10:47:30;;;;;;;14.77;9.13;;;13.00;99.90;;;;;;4988867;28;37805;-75
2022/03/11 10:49:59;;;;;;;17.15;9.02;;;13.00;99.90;;;;;;4984567;28;39040;-76
2022/03/11 10:52:45;;;;;;;14.30;8.25;;;13.10;99.90;;;;;;4967570;28;37615;-75
2022/03/11 10:55:19;;;;;;;14.18;9.25;;;13.20;99.90;;;;;;4967833;28;38283;-76
2022/03/11 10:57:46;;;;;;;13.63;8.65;;;13.40;99.90;;;;;;4982614;28;39922;-75
2022/03/11 11:00:19;;;;;;;14.90;8.85;;;13.60;99.90;;;;;;4977488;28;37445;-75
2022/03/11 11:02:56;;;;;;;17.08;10.30;;;13.60;99.90;;;;;;4981751;28;37359;-75
2022/03/11 11:05:24;;;;;;;15.98;9.68;;;13.60;99.90;;;;;;4968632;28;39248;-77
2022/03/11 11:07:51;;;;;;;13.73;8.77;;;13.70;99.90;;;;;;4968480;28;37280;-77
2022/03/11 11:10:20;;;;;;;16.52;9.40;;;13.70;99.90;;;;;;4957731;28;38633;-76
2022/03/11 11:12:48;;;;;;;15.20;9.68;;;13.80;99.90;;;;;;4978479;28;38677;-77
2022/03/11 11:15:15;;;;;;;13.50;8.73;;;13.70;99.90;;;;;;4965575;28;38115;-77
2022/03/11 11:17:45;;;;;;;18.55;9.30;;;13.80;99.90;;;;;;4967474;28;39323;-76
2022/03/11 11:20:18;;;;;;;15.30;9.13;;;13.90;99.90;;;;;;4954232;28;39782;-77
2022/03/11 11:22:45;;;;;;;17.73;9.75;;;14.00;99.90;;;;;;4982817;28;38695;-76
2022/03/11 11:25:15;;;;;;;14.75;8.73;;;14.10;99.90;;;;;;4969892;28;39085;-78
2022/03/11 11:27:42;;;;;;;13.60;9.27;;;14.20;99.90;;;;;;4946714;28;36047;-77
2022/03/11 11:30:09;;;;;;;15.65;9.25;;;14.30;99.90;;;;;;4962564;28;39458;-77
2022/03/11 11:32:38;;;;;;;15.25;9.27;;;14.40;99.90;;;;;;4961728;28;38564;-78
2022/03/11 11:35:22;;;;;;;10.57;8.55;;;14.50;99.90;;;;;;4978794;28;38088;-77
2022/03/11 11:37:48;;;;;;;15.90;9.52;;;14.60;99.90;;;;;;4969603;28;37196;-77
2022/03/11 11:40:18;;;;;;;16.52;9.98;;;14.60;99.90;;;;;;4965314;28;39046;-77
2022/03/11 11:43:12;;;;;;;13.35;9.60;;;14.70;99.90;;;;;;4965974;28;39309;-78
2022/03/11 11:45:55;;;;;;;15.98;10.40;;;14.70;99.90;;;;;;4967610;28;48798;-78
2022/03/11 11:48:33;;;;;;;17.10;9.73;;;14.70;99.90;;;;;;4962152;28;38375;-78
2022/03/11 11:51:00;;;;;;;13.55;8.65;;;14.70;99.90;;;;;;4979510;28;36926;-78
2022/03/11 11:54:08;;;;;;;13.65;9.25;;;15.00;99.90;;;;;;4980749;28;47412;-77
2022/03/11 11:56:37;;;;;;;16.33;9.27;;;15.30;99.90;;;;;;4981550;28;47157;-78
2022/03/11 11:59:27;;;;;;;16.25;9.40;;;15.40;99.90;;;;;;4965315;28;36126;-76
2022/03/11 12:01:55;;;;;;;13.30;8.40;;;15.40;99.90;;;;;;4968066;28;47334;-77
2022/03/11 12:04:38;;;;;;;12.45;9.13;;;15.60;99.90;;;;;;4983889;28;37466;-77
2022/03/11 12:07:09;;;;;;;11.13;6.80;;;15.60;99.90;;;;;;4981685;28;38477;-78
2022/03/11 12:09:38;;;;;;;10.77;6.47;;;15.60;99.90;;;;;;4982903;28;37156;-79
2022/03/11 12:12:07;;;;;;;8.57;6.20;;;15.50;99.90;;;;;;4984896;28;39545;-76
2022/03/11 12:14:53;;;;;;;14.70;6.55;;;15.60;99.90;;;;;;4978116;28;38748;-76
2022/03/11 12:17:37;;;;;;;11.43;6.47;;;15.70;99.90;;;;;;4977713;28;38549;-78
2022/03/11 12:20:35;;;;;;;9.68;6.45;;;15.70;99.90;;;;;;4984066;28;36226;-78
2022/03/11 12:23:14;;;;;;;10.18;6.35;;;15.40;99.90;;;;;;4964867;28;39754;-75
2022/03/11 12:25:57;;;;;;;9.50;6.40;;;15.40;99.90;;;;;;4988595;28;38519;-79
2022/03/11 12:28:34;;;;;;;15.73;7.32;;;15.50;99.90;;;;;;4967206;28;37066;-78
2022/03/11 12:31:11;;;;;;;14.50;7.13;;;15.70;99.90;;;;;;4978355;28;38322;-78
2022/03/11 12:33:38;;;;;;;20.13;7.10;;;15.80;99.90;;;;;;4982780;28;47323;-78
2022/03/11 12:36:07;;;;;;;11.73;6.53;;;15.80;99.90;;;;;;4985410;28;38235;-77
2022/03/11 12:38:35;;;;;;;12.80;7.05;;;15.70;99.90;;;;;;4979588;28;37935;-78
2022/03/11 12:41:03;;;;;;;13.90;6.43;;;15.70;99.90;;;;;;4985958;28;37519;-78
2022/03/11 12:43:30;;;;;;;11.70;7.03;;;15.90;99.90;;;;;;4980965;28;40703;-77
2022/03/11 12:45:58;;;;;;;12.02;6.22;;;16.00;99.90;;;;;;4989509;28;39916;-78
2022/03/11 12:48:30;;;;;;;11.50;7.07;;;16.20;99.90;;;;;;4978311;28;39062;-76